Smith Center, Kansas
Current Conditions -  °F | °C
As of 11:35 PM on Thursday 30 Oct 2014 (Local Time) from KHDE Reporting Station
Clear Clear  
Wind Chill: 32°   Ceiling: Unl
Heat Index: 38°   Visibility: 10mi
Dew Point: 32°   Wind: 9mph
Humidity: 78%   Direction: 360°N
Pressure: 30.42"   Gusts: NA
Location:  39.78°N, 98.79°W
Report Text: KHDE 310435Z AUTO 36008KT 10SM CLR 04/00 A3042 RMK AO2 T00350000
Loading
Personal Weather Stations






























Interactive Weather Map
Tropical Storm Tracking
New forecast layout! Learn more

10-Day Weather Forecast

Advertisements
Track Severe Weather on mobile